Time;durP1;ratioP1;P1;durP2;ratioP2;P2;SDS_P1;SDS_P2;PMS_P1;PMS_P2;Temp;Humidity;BMP_temperature;BMP_pressure;BME280_temperature;BME280_humidity;BME280_pressure;Samples;Min_cycle;Max_cycle;Signal;HPM_P1;HPM_P2
2022/06/19 00:00:18;;;;;;;4.38;2.33;;;;;;;22.69;65.86;99489.56;5032507;28;20025;-79
2022/06/19 00:02:44;;;;;;;5.35;2.70;;;;;;;22.63;65.94;99491.25;5014788;28;20033;-79
2022/06/19 00:05:11;;;;;;;4.75;2.33;;;;;;;22.44;66.69;99487.31;5032534;28;20017;-78
2022/06/19 00:07:37;;;;;;;5.47;2.33;;;;;;;22.37;66.91;99485.50;5032285;28;20495;-79
2022/06/19 00:10:04;;;;;;;5.68;2.80;;;;;;;22.38;66.95;99486.28;5014789;28;20021;-79
2022/06/19 00:12:30;;;;;;;6.82;2.75;;;;;;;22.32;67.25;99480.44;5032321;28;20109;-79
2022/06/19 00:14:55;;;;;;;4.20;2.30;;;;;;;22.17;67.24;99481.97;5032434;28;20029;-79
2022/06/19 00:17:20;;;;;;;6.70;2.78;;;;;;;22.25;67.14;99480.59;5033201;28;20029;-79
2022/06/19 00:19:46;;;;;;;4.95;2.55;;;;;;;22.05;67.75;99474.31;5032627;28;20030;-79
2022/06/19 00:22:11;;;;;;;7.28;2.10;;;;;;;22.00;67.76;99469.22;5032235;28;20065;-80
2022/06/19 00:24:36;;;;;;;7.10;2.20;;;;;;;21.95;67.91;99459.41;5032322;28;20021;-81
2022/06/19 00:27:03;;;;;;;4.38;2.15;;;;;;;21.85;68.21;99464.00;5032324;28;20587;-79
2022/06/19 00:29:28;;;;;;;6.32;2.70;;;;;;;21.71;68.67;99457.94;5032215;28;20032;-78
2022/06/19 00:31:55;;;;;;;4.63;2.47;;;;;;;21.66;68.81;99447.34;5032282;28;20100;-78
2022/06/19 00:34:21;;;;;;;9.43;2.35;;;;;;;21.65;68.60;99446.56;5032306;28;20387;-78
2022/06/19 00:36:49;;;;;;;4.40;2.10;;;;;;;21.68;68.61;99439.41;5032194;28;20034;-78
2022/06/19 00:39:16;;;;;;;7.68;2.50;;;;;;;21.69;68.43;99432.66;5032236;28;20026;-78
2022/06/19 00:41:41;;;;;;;6.55;2.67;;;;;;;21.55;68.49;99426.19;5032517;28;20032;-79
2022/06/19 00:44:09;;;;;;;5.22;2.25;;;;;;;21.39;69.07;99422.56;5032499;28;20026;-79
2022/06/19 00:46:44;;;;;;;5.53;2.35;;;;;;;21.45;69.03;99423.63;5032750;28;20220;-79
2022/06/19 00:49:13;;;;;;;6.15;2.15;;;;;;;21.37;69.24;99413.91;5032315;28;20120;-79
2022/06/19 00:51:38;;;;;;;6.43;2.33;;;;;;;21.25;69.29;99402.22;5032155;28;20096;-78
2022/06/19 00:54:06;;;;;;;4.38;2.20;;;;;;;21.29;68.99;99397.41;5031796;28;20120;-79
2022/06/19 00:56:32;;;;;;;6.85;2.17;;;;;;;21.16;69.14;99393.66;5031863;28;20064;-78
2022/06/19 00:58:58;;;;;;;5.43;2.00;;;;;;;21.24;68.83;99392.34;5031927;28;20022;-78
2022/06/19 01:01:27;;;;;;;4.97;2.03;;;;;;;21.24;68.54;99378.53;5032046;28;20041;-78
2022/06/19 01:04:09;;;;;;;4.03;2.00;;;;;;;21.11;69.16;99376.75;5033010;28;20108;-77
2022/06/19 01:06:35;;;;;;;4.80;2.08;;;;;;;21.02;69.18;99371.78;5035674;28;20034;-78
2022/06/19 01:09:01;;;;;;;3.88;1.90;;;;;;;21.07;69.11;99368.53;5035764;28;20380;-77
2022/06/19 01:11:31;;;;;;;4.55;2.50;;;;;;;21.00;69.39;99365.91;5035570;28;20072;-78
2022/06/19 01:13:57;;;;;;;5.15;2.33;;;;;;;20.96;69.59;99365.94;5017723;28;20029;-77
2022/06/19 01:16:22;;;;;;;4.60;2.10;;;;;;;20.91;69.93;99358.13;5035465;28;20380;-78
2022/06/19 01:18:48;;;;;;;4.10;2.20;;;;;;;20.88;69.85;99356.22;5017635;28;20030;-77
2022/06/19 01:21:28;;;;;;;4.18;1.88;;;;;;;20.94;70.01;99360.06;5017636;28;20039;-78
2022/06/19 01:24:29;;;;;;;8.27;2.13;;;;;;;20.85;70.47;99356.28;5035446;28;20055;-77
2022/06/19 01:27:00;;;;;;;5.47;2.35;;;;;;;20.72;70.89;99343.06;5035395;28;20025;-78
2022/06/19 01:29:29;;;;;;;4.30;2.33;;;;;;;20.62;71.18;99346.00;5017396;28;20026;-78
2022/06/19 01:31:56;;;;;;;4.35;2.08;;;;;;;20.56;71.22;99345.72;5035266;28;20029;-77
2022/06/19 01:34:29;;;;;;;6.05;2.20;;;;;;;20.64;71.02;99347.13;5035058;28;20026;-77
2022/06/19 01:37:13;;;;;;;4.25;2.25;;;;;;;20.50;71.72;99346.63;5035178;28;20029;-78
2022/06/19 01:39:48;;;;;;;3.80;1.90;;;;;;;20.59;71.27;99339.34;5035271;28;20105;-78
2022/06/19 01:42:15;;;;;;;4.73;2.43;;;;;;;20.52;71.46;99333.94;5035133;28;20033;-78
2022/06/19 01:44:43;;;;;;;4.22;2.25;;;;;;;20.59;71.11;99328.28;5035170;28;20256;-78
2022/06/19 01:47:09;;;;;;;4.97;2.22;;;;;;;20.60;71.08;99324.28;5035112;28;20036;-78
2022/06/19 01:49:36;;;;;;;5.05;2.55;;;;;;;20.52;71.71;99324.84;5035117;28;20029;-78
2022/06/19 01:52:06;;;;;;;6.28;2.30;;;;;;;20.50;71.37;99318.97;5017187;28;20032;-78
2022/06/19 01:54:41;;;;;;;5.82;2.42;;;;;;;20.40;71.75;99323.44;5034377;28;20029;-78
2022/06/19 01:57:09;;;;;;;4.28;2.40;;;;;;;20.32;71.92;99325.53;5034913;28;20029;-78
2022/06/19 01:59:39;;;;;;;4.82;2.30;;;;;;;20.32;71.93;99325.53;5034761;28;20109;-78
2022/06/19 02:02:07;;;;;;;4.05;2.08;;;;;;;20.30;71.82;99322.38;5034889;28;20040;-79
2022/06/19 02:04:33;;;;;;;5.32;1.98;;;;;;;20.21;71.95;99335.19;5034701;28;20018;-78
2022/06/19 02:07:06;;;;;;;7.47;2.10;;;;;;;20.24;71.89;99337.91;5034765;28;20033;-79
2022/06/19 02:09:34;;;;;;;4.20;2.13;;;;;;;20.03;71.74;99336.25;5016990;28;20346;-81
2022/06/19 02:12:00;;;;;;;5.05;1.83;;;;;;;20.04;71.32;99329.50;5034803;28;20053;-79
2022/06/19 02:14:26;;;;;;;5.38;2.10;;;;;;;19.90;71.68;99326.19;5034567;28;20018;-78
2022/06/19 02:16:52;;;;;;;3.55;1.85;;;;;;;19.79;72.02;99318.81;5015936;28;20021;-78
2022/06/19 02:19:18;;;;;;;4.53;2.00;;;;;;;19.74;72.21;99326.78;5034594;28;20030;-79
2022/06/19 02:21:51;;;;;;;3.38;1.48;;;;;;;19.68;72.17;99322.94;5034436;28;20140;-79
2022/06/19 02:24:20;;;;;;;5.78;1.92;;;;;;;19.60;72.11;99324.22;5034602;28;20097;-80
2022/06/19 02:26:48;;;;;;;4.25;1.70;;;;;;;19.46;72.21;99333.41;5016484;28;20029;-80
2022/06/19 02:29:16;;;;;;;4.18;1.92;;;;;;;19.60;71.77;99329.72;5034345;28;20104;-79
2022/06/19 02:31:45;;;;;;;3.92;1.70;;;;;;;19.62;71.47;99321.81;5034254;28;20128;-78
2022/06/19 02:34:24;;;;;;;5.15;2.33;;;;;;;19.57;71.11;99308.47;5034094;28;20488;-79
2022/06/19 02:37:01;;;;;;;4.28;1.80;;;;;;;19.46;71.27;99308.56;5034147;28;20041;-78
2022/06/19 02:39:31;;;;;;;5.22;1.70;;;;;;;19.40;71.30;99316.53;5034243;28;20040;-79
2022/06/19 02:42:05;;;;;;;3.92;1.58;;;;;;;19.39;71.29;99314.97;5034184;28;20025;-78
2022/06/19 02:44:37;;;;;;;3.45;1.60;;;;;;;19.36;71.00;99318.56;5034000;28;20029;-78
2022/06/19 02:47:02;;;;;;;4.50;1.60;;;;;;;19.26;71.28;99340.75;5033942;28;20030;-79
2022/06/19 02:49:28;;;;;;;4.93;1.92;;;;;;;19.12;71.77;99344.47;5033999;28;20032;-80
2022/06/19 02:51:53;;;;;;;;;;;;;;;19.03;72.00;99357.97;5034461;28;20033;-82
2022/06/19 02:54:18;;;;;;;5.97;2.40;;;;;;;18.95;72.60;99384.84;5033936;28;19921;-80
2022/06/19 02:56:44;;;;;;;;;;;;;;;18.94;72.80;99373.00;5034356;28;20037;-80
2022/06/19 02:59:09;;;;;;;5.63;1.90;;;;;;;18.85;72.76;99353.41;5033852;28;19908;-80
2022/06/19 03:01:34;;;;;;;;;;;;;;;18.93;72.36;99334.81;5034292;28;20472;-79
2022/06/19 03:04:00;;;;;;;5.43;1.70;;;;;;;19.10;71.25;99327.53;5034089;28;20374;-79
2022/06/19 03:06:25;;;;;;;;;;;;;;;18.89;71.54;99331.31;5034488;28;20025;-80
2022/06/19 03:08:50;;;;;;;3.87;1.60;;;;;;;18.76;72.02;99350.34;5016155;28;19924;-80
2022/06/19 03:11:15;;;;;;;;;;;;;;;18.56;72.76;99385.16;5034132;28;20264;-81
2022/06/19 03:13:41;;;;;;;3.10;1.20;;;;;;;18.43;73.02;99378.56;5033603;28;20348;-81
2022/06/19 03:16:07;;;;;;;;;;;;;;;18.88;70.65;99352.59;5034003;28;20029;-79
2022/06/19 03:18:34;;;;;;;2.72;1.23;;;;;;;18.74;70.28;99340.91;5015815;28;19909;-79
2022/06/19 03:21:00;;;;;;;2.92;1.30;;;;;;;18.34;71.48;99363.28;5015731;28;20025;-81
2022/06/19 03:23:25;;;;;;;;;;;;;;;18.23;72.39;99362.56;5033575;28;20049;-80
2022/06/19 03:25:51;;;;;;;4.28;1.20;;;;;;;18.07;72.52;99370.53;5033437;28;19913;-79
2022/06/19 03:28:16;;;;;;;;;;;;;;;18.11;71.75;99398.84;5032828;28;20537;-81
2022/06/19 03:30:41;;;;;;;2.97;1.23;;;;;;;18.02;71.90;99401.25;5033276;28;19909;-79
2022/06/19 03:33:07;;;;;;;;;;;;;;;17.99;71.58;99407.59;5033671;28;20314;-79
2022/06/19 03:35:32;;;;;;;3.83;1.60;;;;;;;17.94;71.98;99421.75;5033207;28;20356;-83
2022/06/19 03:37:57;;;;;;;;;;;;;;;17.61;72.32;99432.06;5033801;28;20029;-83
2022/06/19 03:40:23;;;;;;;3.33;1.30;;;;;;;17.33;72.45;99432.19;5033385;28;19909;-79
2022/06/19 03:42:48;;;;;;;;;;;;;;;17.20;72.73;99444.75;5033651;28;20037;-79
2022/06/19 03:45:13;;;;;;;3.73;1.53;;;;;;;17.07;71.29;99445.16;5033039;28;20003;-80
2022/06/19 03:47:39;;;;;;;;;;;;;;;17.00;70.90;99439.69;5033363;28;20043;-78
2022/06/19 03:50:06;;;;;;;4.40;1.25;;;;;;;16.82;70.56;99445.19;5033177;28;20271;-81
2022/06/19 03:52:31;;;;;;;4.30;1.30;;;;;;;16.73;70.70;99450.28;5032957;28;20022;-81
2022/06/19 03:54:57;;;;;;;3.05;1.10;;;;;;;16.79;70.55;99467.16;5032528;28;20029;-78
2022/06/19 03:57:22;;;;;;;;;;;;;;;16.69;70.29;99448.72;5015493;28;20029;-78
2022/06/19 03:59:47;;;;;;;3.23;1.00;;;;;;;16.60;69.51;99443.56;5032579;28;19909;-79
2022/06/19 04:02:13;;;;;;;;;;;;;;;16.43;70.15;99469.03;5033074;28;20065;-79
2022/06/19 04:04:42;;;;;;;3.25;0.88;;;;;;;16.24;70.23;99478.41;5032564;28;19919;-81
2022/06/19 04:07:11;;;;;;;4.53;1.25;;;;;;;16.19;69.87;99492.53;5032741;28;20040;-80
2022/06/19 04:09:37;;;;;;;3.40;1.00;;;;;;;16.14;70.29;99499.19;5032661;28;20464;-78
2022/06/19 04:12:03;;;;;;;1.83;0.75;;;;;;;16.04;69.60;99501.91;5014825;28;20029;-79
2022/06/19 04:14:28;;;;;;;;;;;;;;;15.88;69.16;99513.97;5032922;28;20029;-84
2022/06/19 04:16:54;;;;;;;3.43;1.10;;;;;;;16.00;68.66;99512.09;5015079;28;20411;-79
2022/06/19 04:19:19;;;;;;;4.95;1.40;;;;;;;15.85;68.60;99520.25;5032514;28;20817;-80
2022/06/19 04:21:45;;;;;;;7.85;1.05;;;;;;;15.63;69.28;99515.81;5032562;28;20480;-78
2022/06/19 04:24:13;;;;;;;4.70;1.23;;;;;;;15.67;68.94;99527.59;5032555;28;20060;-80
2022/06/19 04:26:39;;;;;;;6.78;1.45;;;;;;;15.45;68.46;99575.22;5032628;28;20029;-81
2022/06/19 04:29:06;;;;;;;3.63;1.15;;;;;;;15.58;68.74;99573.75;5032766;28;20029;-81
2022/06/19 04:31:32;;;;;;;3.60;1.00;;;;;;;15.53;67.75;99552.16;5032426;28;20142;-90
2022/06/19 04:33:57;;;;;;;4.25;1.00;;;;;;;15.39;68.05;99541.88;5032651;28;20057;-81
2022/06/19 04:36:24;;;;;;;;;;;;;;;15.27;67.74;99540.19;5033334;28;20030;-79
2022/06/19 04:38:51;;;;;;;3.65;1.08;;;;;;;15.18;67.48;99547.19;5033931;28;19959;-82
2022/06/19 04:41:20;;;;;;;4.97;1.30;;;;;;;15.21;67.50;99563.66;5036650;28;20029;-81
2022/06/19 04:43:45;;;;;;;4.45;1.10;;;;;;;15.38;66.54;99550.47;5036628;28;20034;-79
2022/06/19 04:46:11;;;;;;;5.32;1.27;;;;;;;15.67;66.18;99527.59;5036394;28;20142;-80
2022/06/19 04:48:37;;;;;;;;;;;;;;;15.53;65.49;99511.00;5037279;28;20114;-80
2022/06/19 04:51:03;;;;;;;7.25;1.73;;;;;;;15.40;65.87;99496.81;5018964;28;20005;-82
2022/06/19 04:53:28;;;;;;;3.00;0.93;;;;;;;15.55;65.09;99522.38;5036814;28;20060;-87
2022/06/19 04:55:54;;;;;;;;;;;;;;;15.22;65.72;99537.81;5018725;28;20030;-81
2022/06/19 04:58:23;;;;;;;4.03;0.95;;;;;;;15.60;64.42;99522.03;5036112;28;19916;-82
2022/06/19 05:00:53;;;;;;;5.50;1.80;;;;;;;15.34;64.65;99525.78;5018514;28;20095;-81
2022/06/19 05:03:19;;;;;;;4.05;0.85;;;;;;;15.33;64.14;99518.72;5036023;28;20017;-81
2022/06/19 05:05:45;;;;;;;5.30;1.05;;;;;;;15.34;64.00;99543.03;5036160;28;20045;-81
2022/06/19 05:08:10;;;;;;;3.35;1.08;;;;;;;15.57;62.72;99525.53;5036668;28;20058;-81
2022/06/19 05:10:36;;;;;;;;;;;;;;;15.68;62.32;99520.94;5036457;28;20518;-82
2022/06/19 05:13:04;;;;;;;4.35;1.35;;;;;;;15.55;62.25;99503.19;5035926;28;20348;-80
2022/06/19 05:15:29;;;;;;;2.08;0.80;;;;;;;15.78;61.79;99495.47;5035832;28;20051;-79
2022/06/19 05:17:55;;;;;;;5.97;1.13;;;;;;;15.65;62.15;99538.16;5035798;28;20108;-81
2022/06/19 05:20:20;;;;;;;7.65;1.20;;;;;;;15.48;63.46;99579.97;5035755;28;20295;-79
2022/06/19 05:22:45;;;;;;;;;;;;;;;15.59;63.14;99581.63;5036012;28;20041;-79
2022/06/19 05:25:11;;;;;;;4.53;0.90;;;;;;;15.91;61.40;99542.63;5035693;28;19917;-82
2022/06/19 05:27:38;;;;;;;;;;;;;;;15.80;61.69;99542.56;5035999;28;20376;-79
2022/06/19 05:30:05;;;;;;;4.20;1.33;;;;;;;15.68;62.12;99556.63;5035522;28;20295;-79
2022/06/19 05:32:31;;;;;;;5.93;1.25;;;;;;;15.70;61.73;99576.22;5035372;28;20260;-78
2022/06/19 05:34:56;;;;;;;5.15;1.48;;;;;;;15.72;61.56;99562.91;5035380;28;20467;-79
2022/06/19 05:37:21;;;;;;;;;;;;;;;15.68;60.86;99573.06;5035768;28;20040;-79
2022/06/19 05:39:47;;;;;;;6.55;0.90;;;;;;;15.81;61.27;99596.31;5035068;28;19912;-79
2022/06/19 05:42:12;;;;;;;3.30;0.88;;;;;;;15.82;61.10;99588.84;5035285;28;20034;-78
2022/06/19 05:44:37;;;;;;;;;;;;;;;15.84;60.76;99581.03;5035715;28;20173;-78
2022/06/19 05:47:03;;;;;;;3.50;1.20;;;;;;;16.11;59.20;99502.69;5035128;28;19999;-78
2022/06/19 05:49:28;;;;;;;4.55;1.85;;;;;;;15.87;59.98;99467.69;5034992;28;20734;-79
2022/06/19 05:51:53;;;;;;;;;;;;;;;15.78;60.07;99495.47;5034490;28;20087;-79
2022/06/19 05:54:19;;;;;;;5.43;1.30;;;;;;;15.84;59.53;99498.66;5034931;28;19952;-80
2022/06/19 05:56:44;;;;;;;4.72;1.20;;;;;;;15.75;59.90;99471.56;5034872;28;20033;-81
2022/06/19 05:59:09;;;;;;;;;;;;;;;16.05;59.33;99476.78;5036066;28;20444;-80
2022/06/19 06:01:35;;;;;;;6.23;1.10;;;;;;;16.03;59.20;99459.13;5035120;28;19917;-80
2022/06/19 06:04:00;;;;;;;;;;;;;;;15.93;59.59;99453.19;5036496;28;20029;-81
2022/06/19 06:06:30;;;;;;;5.60;1.02;;;;;;;16.03;59.24;99432.47;5018004;28;19920;-81
2022/06/19 06:08:56;;;;;;;3.40;0.95;;;;;;;16.34;58.75;99419.19;5034870;28;20025;-80
2022/06/19 06:11:22;;;;;;;;;;;;;;;16.45;58.10;99420.75;5017301;28;20028;-79
2022/06/19 06:13:48;;;;;;;4.75;1.25;;;;;;;16.25;58.85;99419.56;5034586;28;19909;-84
2022/06/19 06:16:16;;;;;;;9.50;2.33;;;;;;;16.24;58.93;99429.75;5034420;28;20030;-79
2022/06/19 06:18:41;;;;;;;5.97;1.13;;;;;;;16.39;58.89;99418.81;5034359;28;20033;-80
2022/06/19 06:21:14;;;;;;;13.65;1.35;;;;;;;16.53;58.37;99419.63;5016844;28;20028;-79
2022/06/19 06:23:41;;;;;;;5.85;1.35;;;;;;;16.38;59.04;99422.72;5016419;28;20053;-79
2022/06/19 06:26:11;;;;;;;;;;;;;;;16.65;58.56;99415.69;5034830;28;20085;-79
2022/06/19 06:28:40;;;;;;;8.52;0.85;;;;;;;16.59;58.81;99419.22;5034338;28;19916;-79
2022/06/19 06:31:06;;;;;;;4.63;0.90;;;;;;;16.35;59.38;99426.25;5016403;28;20116;-78
2022/06/19 06:33:32;;;;;;;6.70;1.10;;;;;;;16.55;59.26;99436.50;5034202;28;20064;-79
2022/06/19 06:35:59;;;;;;;4.15;0.73;;;;;;;16.94;58.24;99427.50;5034127;28;20394;-78
2022/06/19 06:38:25;;;;;;;4.93;1.55;;;;;;;17.05;58.07;99422.78;5034222;28;20488;-80
2022/06/19 06:40:50;;;;;;;;;;;;;;;17.04;57.63;99415.72;5034445;28;20503;-78
2022/06/19 06:43:16;;;;;;;5.93;1.83;;;;;;;17.11;57.76;99401.94;5016205;28;19909;-80
2022/06/19 06:45:41;;;;;;;;;;;;;;;17.28;57.22;99405.81;5034667;28;20068;-80
2022/06/19 06:48:07;;;;;;;6.78;1.67;;;;;;;17.83;56.06;99440.31;5034014;28;19916;-79
2022/06/19 06:50:32;;;;;;;;;;;;;;;18.07;54.92;99453.16;5016599;28;20464;-79
2022/06/19 06:52:58;;;;;;;4.80;1.15;;;;;;;17.97;55.61;99454.81;5016920;28;19959;-81
2022/06/19 06:55:23;;;;;;;;;;;;;;;18.50;53.98;99480.50;5034665;28;20029;-81
2022/06/19 06:57:49;;;;;;;5.13;1.40;;;;;;;19.10;52.96;99469.03;5033799;28;19913;-80
2022/06/19 07:00:16;;;;;;;;;;;;;;;19.27;52.11;99497.66;5034287;28;20268;-81
2022/06/19 07:02:41;;;;;;;8.68;1.48;;;;;;;19.63;51.14;99494.59;5033553;28;19909;-79
2022/06/19 07:05:07;;;;;;;;;;;;;;;19.76;50.98;99503.91;5034106;28;20041;-79
2022/06/19 07:07:32;;;;;;;6.85;1.73;;;;;;;19.97;50.35;99495.38;5033719;28;20384;-79
2022/06/19 07:09:57;;;;;;;;;;;;;;;20.02;49.97;99514.28;5016277;28;20048;-80
2022/06/19 07:12:23;;;;;;;6.27;1.37;;;;;;;19.91;50.79;99521.91;5033443;28;19909;-80
2022/06/19 07:14:48;;;;;;;;;;;;;;;19.72;51.32;99559.19;5016039;28;20434;-80
2022/06/19 07:17:13;;;;;;;4.77;1.10;;;;;;;20.35;50.80;99581.03;5033499;28;19909;-80
2022/06/19 07:19:38;;;;;;;;;;;;;;;20.97;49.02;99574.28;5033948;28;20362;-79
2022/06/19 07:22:04;;;;;;;7.40;1.40;;;;;;;21.46;47.08;99600.44;5015458;28;20278;-79
2022/06/19 07:24:29;;;;;;;3.85;1.15;;;;;;;21.29;47.06;99637.50;5033324;28;20031;-79
2022/06/19 07:26:55;;;;;;;5.80;1.73;;;;;;;20.81;49.24;99676.50;5033265;28;20071;-79
2022/06/19 07:29:20;;;;;;;6.47;1.40;;;;;;;20.50;49.37;99682.00;5033157;28;20376;-77
2022/06/19 07:31:45;;;;;;;6.03;1.10;;;;;;;20.71;48.68;99712.19;5033008;28;20034;-81
2022/06/19 07:34:11;;;;;;;5.72;1.13;;;;;;;20.23;49.93;99744.66;5033233;28;20033;-80
2022/06/19 07:36:36;;;;;;;9.10;1.27;;;;;;;20.04;50.54;99771.66;5015802;28;20052;-80
2022/06/19 07:39:04;;;;;;;4.68;1.27;;;;;;;20.21;50.15;99783.75;5033268;28;20135;-80
2022/06/19 07:41:29;;;;;;;3.78;1.30;;;;;;;19.90;50.88;99787.56;5033023;28;20033;-80
2022/06/19 07:43:56;;;;;;;3.33;1.00;;;;;;;19.90;51.33;99785.56;5033107;28;20383;-79
2022/06/19 07:46:23;;;;;;;6.82;1.05;;;;;;;20.24;50.74;99758.06;5033000;28;20029;-78
2022/06/19 07:51:32;;;;;;;3.67;1.15;;;;;;;20.01;50.38;99763.41;5033017;28;20494;-78
2022/06/19 07:53:58;;;;;;;5.47;1.27;;;;;;;19.93;50.33;99773.72;5032877;28;20033;-78
2022/06/19 07:56:24;;;;;;;4.10;1.23;;;;;;;19.89;50.89;99775.72;5015090;28;20056;-78
2022/06/19 07:58:49;;;;;;;5.07;1.23;;;;;;;19.25;51.78;99756.72;5015162;28;20036;-78
2022/06/19 08:01:15;;;;;;;6.50;1.27;;;;;;;19.03;52.92;99747.00;5032850;28;20029;-78
2022/06/19 08:03:40;;;;;;;19.45;3.40;;;;;;;19.10;52.78;99750.50;5032975;28;20460;-79
2022/06/19 08:06:05;;;;;;;5.28;1.40;;;;;;;19.24;52.74;99755.94;5015065;28;20025;-78
2022/06/19 08:08:34;;;;;;;6.32;1.17;;;;;;;19.63;52.51;99762.47;5014954;28;20072;-78
2022/06/19 08:11:01;;;;;;;5.78;1.77;;;;;;;19.19;52.91;99769.38;5033237;28;20033;-77
2022/06/19 08:13:30;;;;;;;5.70;1.80;;;;;;;19.38;52.73;99763.38;5014501;28;20021;-77
2022/06/19 08:15:59;;;;;;;11.45;2.45;;;;;;;19.21;53.69;99758.72;5014708;28;20116;-77
2022/06/19 08:18:26;;;;;;;6.97;1.83;;;;;;;18.88;54.20;99751.78;5032515;28;20053;-77
2022/06/19 08:20:52;;;;;;;11.00;1.73;;;;;;;18.72;54.69;99730.16;5032334;28;20030;-78
2022/06/19 08:23:19;;;;;;;5.70;1.58;;;;;;;18.92;54.29;99742.28;5032509;28;20049;-78
2022/06/19 08:25:46;;;;;;;8.77;1.80;;;;;;;18.86;54.40;99752.16;5032535;28;20026;-77
2022/06/19 08:28:12;;;;;;;3.42;1.27;;;;;;;19.01;54.02;99743.84;5014623;28;20036;-78
2022/06/19 08:30:41;;;;;;;5.05;1.55;;;;;;;18.86;54.13;99741.13;5014670;28;20022;-77
2022/06/19 08:33:07;;;;;;;4.63;1.15;;;;;;;19.02;53.60;99759.22;5032247;28;20029;-78
2022/06/19 08:35:38;;;;;;;11.75;1.38;;;;;;;18.78;54.69;99749.81;5032389;28;20025;-78
2022/06/19 08:38:11;;;;;;;7.38;1.45;;;;;;;18.83;54.47;99765.97;5032494;28;20037;-77
2022/06/19 08:40:48;;;;;;;4.85;1.50;;;;;;;18.79;54.67;99774.25;5032569;28;20029;-77
2022/06/19 08:43:42;;;;;;;6.72;1.25;;;;;;;18.67;54.65;99782.97;5032452;28;20021;-79
2022/06/19 08:46:38;;;;;;;7.60;1.42;;;;;;;19.03;53.71;99782.84;4927924;28;20040;-79
2022/06/19 08:49:11;;;;;;;6.80;1.48;;;;;;;18.72;54.06;99790.81;5032192;28;20083;-77
2022/06/19 08:51:58;;;;;;;4.68;1.38;;;;;;;19.04;53.74;99784.44;5032017;28;20037;-77
2022/06/19 08:54:42;;;;;;;4.50;1.23;;;;;;;19.16;52.76;99797.78;5032218;28;20021;-79
2022/06/19 08:57:13;;;;;;;3.25;1.02;;;;;;;19.09;52.63;99790.31;5032334;28;20032;-78
2022/06/19 09:00:01;;;;;;;5.85;1.23;;;;;;;19.23;52.40;99793.03;5032350;28;20606;-79
2022/06/19 09:03:00;;;;;;;4.07;1.63;;;;;;;19.00;52.79;99773.41;5032072;28;20036;-78
2022/06/19 09:05:47;;;;;;;2.25;1.00;;;;;;;18.77;53.53;99737.22;5032310;28;20104;-77
2022/06/19 09:08:44;;;;;;;6.25;1.58;;;;;;;19.20;52.57;99721.28;5032498;28;20109;-79
2022/06/19 09:11:30;;;;;;;;;;;;;;;19.56;51.76;99732.94;4968188;28;20038;-79
2022/06/19 09:14:33;;;;;;;5.35;1.58;;;;;;;19.51;52.48;99731.34;5032236;28;19952;-78
2022/06/19 09:17:20;;;;;;;5.25;1.52;;;;;;;19.77;51.72;99698.84;5032254;28;20100;-79
2022/06/19 09:19:50;;;;;;;;;;;;;;;19.73;50.90;99698.88;5014944;28;20022;-79
2022/06/19 09:22:43;;;;;;;6.55;0.90;;;;;;;19.91;50.05;99693.22;5032070;28;20316;-79
2022/06/19 09:25:20;;;;;;;4.07;1.05;;;;;;;19.93;50.47;99696.34;5033509;28;20025;-79
2022/06/19 09:28:09;;;;;;;6.22;1.30;;;;;;;20.13;51.65;99694.56;5035764;28;20029;-79
2022/06/19 09:30:42;;;;;;;3.90;1.13;;;;;;;19.82;50.77;99701.97;5035522;28;20134;-79
2022/06/19 09:33:18;;;;;;;4.60;0.88;;;;;;;20.30;50.51;99703.09;5035528;28;20101;-79
2022/06/19 09:35:51;;;;;;;9.55;1.40;;;;;;;20.12;50.74;99700.50;5035408;28;20064;-79
2022/06/19 09:38:31;;;;;;;6.93;1.45;;;;;;;20.17;51.10;99705.63;5035303;28;20060;-79
2022/06/19 09:41:01;;;;;;;4.90;1.05;;;;;;;20.02;52.21;99702.19;5035526;28;20025;-81
2022/06/19 09:44:00;;;;;;;5.57;1.27;;;;;;;20.25;50.40;99703.56;5017675;28;20384;-79
2022/06/19 09:46:35;;;;;;;3.53;1.00;;;;;;;20.25;51.17;99695.25;5017263;28;20543;-79
2022/06/19 09:49:10;;;;;;;5.60;1.95;;;;;;;20.17;50.73;99663.38;5035134;28;20029;-79
2022/06/19 09:51:42;;;;;;;5.23;1.10;;;;;;;19.81;51.72;99652.63;5035302;28;20476;-79
2022/06/19 09:54:19;;;;;;;5.95;1.42;;;;;;;19.35;54.54;99653.78;5035229;28;20252;-79
2022/06/19 09:56:45;;;;;;;5.40;2.08;;;;;;;19.30;53.81;99631.31;5035458;28;20402;-79
2022/06/19 09:59:10;;;;;;;4.30;1.23;;;;;;;19.23;53.62;99612.84;5035334;28;20048;-78
2022/06/19 10:01:36;;;;;;;;;;;;;;;19.17;53.70;99606.97;5035534;28;20029;-79
2022/06/19 10:04:17;;;;;;;3.55;1.25;;;;;;;19.13;54.06;99616.44;5034790;28;19920;-79
2022/06/19 10:06:56;;;;;;;5.03;1.80;;;;;;;19.20;54.46;99591.56;5034737;28;20091;-80
2022/06/19 10:09:39;;;;;;;5.22;1.73;;;;;;;19.12;54.54;99599.09;5034640;28;20033;-81
2022/06/19 10:12:10;;;;;;;5.90;1.73;;;;;;;19.08;54.69;99603.09;5034938;28;20473;-80
2022/06/19 10:14:42;;;;;;;5.80;1.65;;;;;;;19.19;54.54;99631.41;5035205;28;20087;-81
2022/06/19 10:17:23;;;;;;;2.95;1.20;;;;;;;19.33;54.76;99625.78;5034937;28;20021;-79
2022/06/19 10:20:03;;;;;;;4.68;1.85;;;;;;;19.43;53.80;99662.78;5034655;28;20156;-79
2022/06/19 10:22:34;;;;;;;5.30;1.50;;;;;;;19.31;54.92;99650.22;5034349;28;20056;-79
2022/06/19 10:25:15;;;;;;;7.85;1.92;;;;;;;19.47;55.03;99671.81;5034708;28;20045;-79
2022/06/19 10:28:12;;;;;;;7.68;1.90;;;;;;;19.21;54.62;99602.22;5034694;28;20117;-79
2022/06/19 10:30:51;;;;;;;6.32;1.65;;;;;;;19.33;54.25;99567.81;5016996;28;20029;-79
2022/06/19 10:33:27;;;;;;;7.47;1.52;;;;;;;19.22;56.08;99531.22;5034641;28;20040;-79
2022/06/19 10:36:01;;;;;;;3.97;1.58;;;;;;;19.05;55.94;99604.69;5034243;28;20030;-78
2022/06/19 10:38:48;;;;;;;4.25;1.35;;;;;;;19.07;56.54;99634.63;5034302;28;20040;-79
2022/06/19 10:42:00;;;;;;;5.47;1.05;;;;;;;19.36;55.55;99569.75;5016536;28;20029;-78
2022/06/19 10:44:23;;;;;;;5.90;1.80;;;;;;;19.45;54.57;99555.47;5034127;28;20075;-79
2022/06/19 10:46:57;;;;;;;8.32;1.42;;;;;;;19.38;54.65;99559.09;5034364;28;20476;-78
2022/06/19 10:49:35;;;;;;;7.18;1.50;;;;;;;19.96;53.44;99551.84;5034365;28;20034;-78
2022/06/19 10:52:15;;;;;;;4.45;1.58;;;;;;;20.11;53.17;99561.53;5034399;28;20021;-79
2022/06/19 10:54:47;;;;;;;8.00;1.95;;;;;;;20.10;52.98;99562.75;5034132;28;20028;-78
2022/06/19 10:57:33;;;;;;;3.83;1.40;;;;;;;20.43;52.62;99568.69;5034168;28;20447;-78
2022/06/19 10:59:59;;;;;;;6.55;1.35;;;;;;;20.47;52.51;99566.66;5034117;28;20029;-79
2022/06/19 11:05:28;;;;;;;3.88;1.08;;;;;;;20.86;51.09;99546.78;5034013;28;20044;-79
2022/06/19 11:07:53;;;;;;;6.30;1.77;;;;;;;21.07;50.85;99539.34;5033840;28;20025;-79
2022/06/19 11:10:24;;;;;;;6.82;1.73;;;;;;;21.01;50.74;99545.38;5016026;28;20384;-78
2022/06/19 11:12:56;;;;;;;4.05;1.60;;;;;;;20.96;50.88;99556.88;5033541;28;20029;-80
2022/06/19 11:15:21;;;;;;;6.13;1.45;;;;;;;20.69;51.54;99567.97;5033874;28;20025;-79
2022/06/19 11:17:46;;;;;;;7.95;1.90;;;;;;;20.97;50.73;99580.59;5016102;28;20111;-82
2022/06/19 11:20:32;;;;;;;2.45;1.10;;;;;;;20.95;50.77;99579.44;5015954;28;20365;-79
2022/06/19 11:23:03;;;;;;;6.00;1.27;;;;;;;20.52;52.43;99580.06;5014551;28;20049;-78
2022/06/19 11:25:34;;;;;;;3.35;1.10;;;;;;;20.70;52.50;99575.06;5033308;28;20421;-78
2022/06/19 11:28:02;;;;;;;4.60;1.50;;;;;;;20.99;51.16;99571.88;5033208;28;20030;-82
2022/06/19 11:30:45;;;;;;;5.00;1.58;;;;;;;21.27;50.82;99568.69;5033422;28;20021;-81
2022/06/19 11:33:15;;;;;;;7.53;1.75;;;;;;;21.07;50.87;99580.88;5033556;28;20427;-81
2022/06/19 11:35:46;;;;;;;5.55;1.73;;;;;;;21.07;51.13;99606.56;5015466;28;20115;-80
2022/06/19 11:38:14;;;;;;;7.90;1.38;;;;;;;21.10;51.28;99627.09;5032930;28;20417;-79
2022/06/19 11:40:45;;;;;;;8.00;1.83;;;;;;;21.02;52.81;99615.34;5032911;28;20083;-78
2022/06/19 11:43:30;;;;;;;1.92;0.90;;;;;;;21.29;50.80;99596.75;5032958;28;20033;-78
2022/06/19 11:46:27;;;;;;;5.38;1.60;;;;;;;21.27;51.14;99621.31;5033048;28;20017;-78
2022/06/19 11:48:53;;;;;;;8.25;1.67;;;;;;;21.28;51.31;99639.47;5010450;28;20041;-78
2022/06/19 11:51:22;;;;;;;4.30;1.20;;;;;;;21.51;51.54;99638.75;5015102;28;20025;-78
2022/06/19 11:53:54;;;;;;;5.47;1.33;;;;;;;21.55;50.42;99652.53;5032778;28;20036;-77
2022/06/19 11:56:37;;;;;;;3.65;1.17;;;;;;;21.14;50.84;99656.28;5015040;28;20025;-79
2022/06/19 11:59:23;;;;;;;4.85;1.42;;;;;;;21.16;51.10;99642.00;5015261;28;20022;-79